This is the latest recevied weather packets stored in our database for station/object KE6RLG. If no packets are shown the sender has not sent any weather packets the latest 10 day(s).
| Time | Temp. | Humidity | Pressure | Rain* | Wind** | Luminosity | Snow |
|---|---|---|---|---|---|---|---|
| 1777394418 | 17.78° C | 48% | 1017.8 hPa | 0 mm | - | 592 W/m² | - |
| 1777393218 | 17.22° C | 47% | 1017.9 hPa | 0 mm | - | 524 W/m² | - |
| 1777392958 | 17.78° C | 46% | 1017.9 hPa | 0 mm | - | 509 W/m² | - |
| 1777391738 | 18.89° C | 44% | 1018 hPa | 0 mm | - | 436 W/m² | - |
| 1777391138 | 17.78° C | 48% | 1017.9 hPa | 0 mm | - | 399 W/m² | - |
| 1777390518 | 17.22° C | 52% | 1017.9 hPa | 0 mm | - | 364 W/m² | - |
| 1777388416 | 16.67° C | 51% | 1017.9 hPa | 0 mm | - | 231 W/m² | - |
| 1777383628 | 9.44° C | 82% | 1017.2 hPa | 0 mm | - | 25 W/m² | - |
| 1777380328 | 9.44° C | 82% | 1016.5 hPa | 0 mm | - | 0 W/m² | - |
| 1777379449 | 9.44° C | 82% | 1016.5 hPa | 0 mm | - | 0 W/m² | - |
| 1777378529 | 9.44° C | 80% | 1016.4 hPa | 0 mm | - | 0 W/m² | - |
| 1777377629 | 9.44° C | 80% | 1016.3 hPa | 0 mm | - | 0 W/m² | - |
| 1777374316 | 9.44° C | 75% | 1016.2 hPa | 0 mm | - | 0 W/m² | - |
| 1777372817 | 9.44° C | 75% | 1016.2 hPa | 0 mm | - | 0 W/m² | - |
| 1777372537 | 10° C | 74% | 1016.2 hPa | 0 mm | - | 0 W/m² | - |
| 1777371017 | 9.44° C | 76% | 1016.3 hPa | 0 mm | - | 0 W/m² | - |
| 1777367118 | 10.56° C | 73% | 1016.9 hPa | 0 mm | - | 0 W/m² | - |
| 1777365918 | 10.56° C | 73% | 1017 hPa | 0 mm | - | 0 W/m² | - |
| 1777365038 | 10° C | 75% | 1017.3 hPa | 0 mm | - | 0 W/m² | - |
| 1777364738 | 10° C | 74% | 1017.4 hPa | 0 mm | - | 0 W/m² | - |
| 1777362619 | 10° C | 76% | 1017.5 hPa | 0 mm | - | 0 W/m² | - |
| 1777362319 | 10° C | 77% | 1017.4 hPa | 0 mm | - | 0 W/m² | - |
| 1777359019 | 11.11° C | 74% | 1017.4 hPa | 0 mm | - | 0 W/m² | - |
| 1777358420 | 11.67° C | 73% | 1017.3 hPa | 0 mm | - | 0 W/m² | - |
| 1777354521 | 13.33° C | 71% | 1017.3 hPa | 0 mm | - | 0 W/m² | - |
* Rain latest hour (hover to see other rain measurements)
** Current wind speed in m/s (hover to see current wind gust speed)